Time;durP1;ratioP1;P1;durP2;ratioP2;P2;SDS_P1;SDS_P2;PMS_P1;PMS_P2;Temp;Humidity;BMP_temperature;BMP_pressure;BME280_temperature;BME280_humidity;BME280_pressure;Samples;Min_cycle;Max_cycle;Signal;HPM_P1;HPM_P2
2022/06/21 00:00:52;;;;;;;9.65;4.90;;;;;;;;;;5032443;28;20037;-67
2022/06/21 00:03:20;;;;;;;7.85;4.68;;;;;;;;;;5032511;28;20519;-66
2022/06/21 00:05:47;;;;;;;6.82;5.30;;;;;;;;;;5032298;28;20376;-65
2022/06/21 00:08:15;;;;;;;9.55;5.22;;;;;;;;;;5032738;28;20099;-65
2022/06/21 00:10:41;;;;;;;7.90;5.10;;;;;;;;;;5032272;28;20018;-66
2022/06/21 00:13:10;;;;;;;11.43;5.85;;;;;;;;;;5032233;28;20097;-66
2022/06/21 00:15:36;;;;;;;7.35;4.78;;;;;;;;;;5031655;28;20489;-65
2022/06/21 00:18:02;;;;;;;8.68;5.72;;;;;;;;;;5031953;28;20021;-65
2022/06/21 00:20:28;;;;;;;8.35;5.15;;;;;;;;;;5031538;28;20022;-66
2022/06/21 00:22:54;;;;;;;6.90;4.53;;;;;;;;;;5032177;28;20040;-65
2022/06/21 00:25:23;;;;;;;7.28;4.60;;;;;;;;;;5031579;28;20098;-66
2022/06/21 00:27:49;;;;;;;10.02;4.72;;;;;;;;;;5031851;28;20029;-66
2022/06/21 00:30:16;;;;;;;8.45;4.85;;;;;;;;;;5031950;28;20116;-65
2022/06/21 00:32:42;;;;;;;9.23;5.32;;;;;;;;;;5032100;28;20060;-66
2022/06/21 00:35:14;;;;;;;7.82;5.47;;;;;;;;;;5031970;28;20091;-65
2022/06/21 00:37:41;;;;;;;7.05;5.43;;;;;;;;;;5031949;28;20052;-65
2022/06/21 00:40:24;;;;;;;8.98;5.60;;;;;;;;;;5031897;28;20079;-65
2022/06/21 00:42:59;;;;;;;8.55;5.40;;;;;;;;;;5030362;28;20523;-65
2022/06/21 00:45:27;;;;;;;8.18;5.80;;;;;;;;;;5031430;28;20034;-65
2022/06/21 00:47:55;;;;;;;9.60;6.75;;;;;;;;;;5031744;28;20037;-65
2022/06/21 00:50:29;;;;;;;9.40;6.13;;;;;;;;;;5031507;28;20026;-66
2022/06/21 00:53:02;;;;;;;11.35;6.70;;;;;;;;;;5031786;28;20025;-65
2022/06/21 00:55:27;;;;;;;;;;;;;;;;;;5031927;28;20098;-65
2022/06/21 00:57:55;;;;;;;9.50;6.65;;;;;;;;;;5031820;28;19908;-66
2022/06/21 01:00:26;;;;;;;11.13;6.78;;;;;;;;;;5031668;28;20036;-66
2022/06/21 01:02:53;;;;;;;11.33;6.53;;;;;;;;;;5031229;28;20029;-66
2022/06/21 01:05:19;;;;;;;11.13;7.18;;;;;;;;;;5031427;28;20026;-65
2022/06/21 01:07:46;;;;;;;10.85;7.30;;;;;;;;;;5031590;28;20029;-66
2022/06/21 01:10:15;;;;;;;15.18;6.90;;;;;;;;;;5031328;28;20030;-65
2022/06/21 01:12:45;;;;;;;8.60;6.68;;;;;;;;;;5031467;28;20108;-65
2022/06/21 01:15:16;;;;;;;9.10;6.50;;;;;;;;;;5031069;28;20053;-66
2022/06/21 01:17:42;;;;;;;15.48;8.52;;;;;;;;;;5031534;28;20028;-66
2022/06/21 01:20:10;;;;;;;13.18;9.13;;;;;;;;;;5031328;28;20108;-65
2022/06/21 01:22:51;;;;;;;11.23;7.22;;;;;;;;;;5031251;28;20037;-65
2022/06/21 01:25:39;;;;;;;12.15;7.30;;;;;;;;;;5031253;28;20030;-65
2022/06/21 01:28:06;;;;;;;11.38;7.10;;;;;;;;;;5031240;28;20032;-66
2022/06/21 01:30:33;;;;;;;14.88;7.95;;;;;;;;;;5031364;28;20393;-65
2022/06/21 01:32:59;;;;;;;11.95;7.18;;;;;;;;;;5035232;28;20109;-66
2022/06/21 01:35:34;;;;;;;11.40;7.30;;;;;;;;;;5035185;28;20465;-65
2022/06/21 01:38:01;;;;;;;10.63;6.75;;;;;;;;;;5035191;28;20048;-65
2022/06/21 01:40:29;;;;;;;11.70;6.90;;;;;;;;;;5035273;28;20493;-65
2022/06/21 01:43:01;;;;;;;11.77;7.10;;;;;;;;;;5035186;28;20061;-65
2022/06/21 01:45:32;;;;;;;11.77;6.95;;;;;;;;;;5035046;28;20075;-66
2022/06/21 01:48:03;;;;;;;10.25;7.38;;;;;;;;;;5035187;28;20033;-65
2022/06/21 01:50:30;;;;;;;14.82;7.47;;;;;;;;;;5034927;28;20473;-65
2022/06/21 01:52:56;;;;;;;11.40;7.90;;;;;;;;;;5035037;28;20061;-64
2022/06/21 05:15:53;;;;;;;11.20;5.00;;;;;;;;;;5254548;23;21189;-62
2022/06/21 05:18:26;;;;;;;10.25;4.50;;;;;;;;;;4972570;28;20190;-62
2022/06/21 05:20:54;;;;;;;10.10;5.25;;;;;;;;;;4972222;28;20029;-64
2022/06/21 05:23:21;;;;;;;10.10;4.95;;;;;;;;;;4972327;28;20394;-62
2022/06/21 05:25:48;;;;;;;9.18;4.85;;;;;;;;;;4971839;28;20450;-63
2022/06/21 05:28:43;;;;;;;11.38;4.85;;;;;;;;;;4972436;28;20030;-61
2022/06/21 05:31:13;;;;;;;8.85;4.70;;;;;;;;;;4912489;29;20139;-62
2022/06/21 05:33:42;;;;;;;12.17;4.90;;;;;;;;;;4912357;29;20141;-65
2022/06/21 05:36:11;;;;;;;11.60;5.07;;;;;;;;;;4912318;29;20071;-64
2022/06/21 05:38:45;;;;;;;8.00;4.50;;;;;;;;;;4912171;29;20042;-64
2022/06/21 05:41:29;;;;;;;10.73;5.28;;;;;;;;;;4912720;29;20415;-64
2022/06/21 05:43:59;;;;;;;8.88;4.65;;;;;;;;;;4912691;29;20043;-64
2022/06/21 05:46:27;;;;;;;8.05;4.93;;;;;;;;;;4904512;29;20411;-65
2022/06/21 05:48:55;;;;;;;9.20;5.10;;;;;;;;;;4912698;29;20043;-62
2022/06/21 05:51:24;;;;;;;12.50;5.40;;;;;;;;;;4896720;29;20440;-66
2022/06/21 05:53:52;;;;;;;16.25;5.90;;;;;;;;;;4912505;29;20094;-63
2022/06/21 05:56:20;;;;;;;11.98;5.85;;;;;;;;;;4907597;29;20446;-61
2022/06/21 05:58:49;;;;;;;14.45;6.03;;;;;;;;;;4912052;29;20449;-66
2022/06/21 06:01:15;;;;;;;22.10;6.40;;;;;;;;;;4912550;29;20048;-60
2022/06/21 06:03:50;;;;;;;11.15;5.70;;;;;;;;;;4912373;29;20040;-66
2022/06/21 06:06:19;;;;;;;13.23;6.35;;;;;;;;;;4912242;29;20110;-65
2022/06/21 06:08:48;;;;;;;28.55;7.30;;;;;;;;;;4971407;28;20019;-63
2022/06/21 06:11:16;;;;;;;11.27;6.25;;;;;;;;;;4972224;28;20037;-62
2022/06/21 06:13:43;;;;;;;9.98;5.70;;;;;;;;;;4975948;28;20022;-60
2022/06/21 06:16:24;;;;;;;12.35;6.28;;;;;;;;;;4997364;28;20123;-62
2022/06/21 06:18:53;;;;;;;14.97;5.60;;;;;;;;;;5011635;28;20411;-62
2022/06/21 06:21:39;;;;;;;13.05;5.60;;;;;;;;;;5013923;28;20054;-63
2022/06/21 06:24:19;;;;;;;12.73;6.30;;;;;;;;;;4915891;29;20160;-60
2022/06/21 06:26:46;;;;;;;12.65;5.80;;;;;;;;;;4897510;29;20073;-63
2022/06/21 06:29:15;;;;;;;7.60;4.60;;;;;;;;;;4895881;29;20048;-60
2022/06/21 06:31:47;;;;;;;17.77;5.78;;;;;;;;;;4895482;29;20037;-63
2022/06/21 06:34:13;;;;;;;;;;;;;;;;;;4895294;29;20029;-62
2022/06/21 06:36:41;;;;;;;13.75;5.65;;;;;;;;;;4895021;29;19941;-62
2022/06/21 06:39:19;;;;;;;8.32;5.07;;;;;;;;;;4895154;29;20033;-62
2022/06/21 06:41:56;;;;;;;14.68;5.57;;;;;;;;;;4895235;29;20045;-61
2022/06/21 06:44:26;;;;;;;11.52;5.18;;;;;;;;;;4894998;29;20043;-61
2022/06/21 06:46:52;;;;;;;12.95;5.40;;;;;;;;;;4894786;29;20064;-61
2022/06/21 06:49:28;;;;;;;10.07;5.30;;;;;;;;;;4895284;29;20445;-61
2022/06/21 06:52:03;;;;;;;14.75;4.95;;;;;;;;;;4894512;29;20561;-61
2022/06/21 06:54:32;;;;;;;8.60;4.72;;;;;;;;;;4894371;29;20448;-60
2022/06/21 06:57:21;;;;;;;9.50;4.72;;;;;;;;;;4894803;29;20105;-62
2022/06/21 06:59:47;;;;;;;11.50;4.72;;;;;;;;;;4857490;29;20041;-62
2022/06/21 07:02:13;;;;;;;10.20;4.72;;;;;;;;;;4928617;29;20693;-61
2022/06/21 07:04:42;;;;;;;8.85;4.50;;;;;;;;;;4933353;29;20127;-65
2022/06/21 07:07:12;;;;;;;14.52;5.45;;;;;;;;;;4914803;29;20510;-60
2022/06/21 07:09:45;;;;;;;11.68;4.70;;;;;;;;;;4933975;29;20038;-60
2022/06/21 07:12:24;;;;;;;13.60;4.70;;;;;;;;;;4933886;29;20071;-62
2022/06/21 07:14:51;;;;;;;11.15;4.88;;;;;;;;;;4933312;29;20114;-61
2022/06/21 07:17:22;;;;;;;10.30;4.43;;;;;;;;;;4933276;29;20175;-61
2022/06/21 07:19:49;;;;;;;9.52;4.90;;;;;;;;;;4933287;29;20040;-62
2022/06/21 07:22:20;;;;;;;11.20;5.13;;;;;;;;;;4932733;29;20078;-61
2022/06/21 07:24:52;;;;;;;13.70;4.70;;;;;;;;;;4932579;29;20051;-63
2022/06/21 07:27:19;;;;;;;8.38;4.35;;;;;;;;;;4916251;29;20400;-62
2022/06/21 07:30:00;;;;;;;9.38;4.60;;;;;;;;;;4932310;29;20032;-64
2022/06/21 07:32:29;;;;;;;11.98;4.82;;;;;;;;;;4932795;29;20134;-61
2022/06/21 07:35:05;;;;;;;9.93;4.90;;;;;;;;;;4932568;29;20515;-61
2022/06/21 07:37:36;;;;;;;11.25;4.75;;;;;;;;;;4980958;28;20470;-61
2022/06/21 07:40:02;;;;;;;10.10;5.00;;;;;;;;;;4992838;28;20026;-63
2022/06/21 07:42:30;;;;;;;10.70;4.75;;;;;;;;;;4992387;28;20084;-66
2022/06/21 07:45:16;;;;;;;12.45;4.90;;;;;;;;;;4992789;28;20105;-67
2022/06/21 07:47:42;;;;;;;13.38;4.63;;;;;;;;;;4992535;28;20486;-61
2022/06/21 07:50:15;;;;;;;10.02;4.82;;;;;;;;;;4991986;28;20386;-67
2022/06/21 07:53:07;;;;;;;9.18;4.88;;;;;;;;;;4993243;28;20030;-64
2022/06/21 07:55:38;;;;;;;11.63;4.63;;;;;;;;;;4988798;28;20100;-62
2022/06/21 07:58:14;;;;;;;11.73;5.22;;;;;;;;;;4993198;28;20025;-63
2022/06/21 08:09:08;;;;;;;10.70;4.80;;;;;;;;;;4993047;28;20080;-62
2022/06/21 08:11:38;;;;;;;11.48;5.00;;;;;;;;;;4993013;28;20030;-65
2022/06/21 08:14:05;;;;;;;13.63;5.50;;;;;;;;;;4992876;28;20029;-62
2022/06/21 08:16:35;;;;;;;11.38;5.00;;;;;;;;;;4992107;28;20046;-62
2022/06/21 08:19:04;;;;;;;9.10;4.72;;;;;;;;;;4992338;28;20055;-63
2022/06/21 08:21:35;;;;;;;12.07;5.07;;;;;;;;;;4992780;28;20030;-63
2022/06/21 08:24:04;;;;;;;11.20;5.25;;;;;;;;;;4992702;28;20037;-62
2022/06/21 08:26:42;;;;;;;9.27;4.97;;;;;;;;;;4992279;28;20422;-62
2022/06/21 08:29:11;;;;;;;9.63;5.13;;;;;;;;;;4992293;28;20478;-62
2022/06/21 08:31:39;;;;;;;10.90;4.82;;;;;;;;;;4992311;28;20110;-63
2022/06/21 08:34:10;;;;;;;9.80;5.45;;;;;;;;;;4992442;28;20358;-62
2022/06/21 08:36:39;;;;;;;10.30;5.05;;;;;;;;;;4992686;28;20035;-62
2022/06/21 08:39:10;;;;;;;13.55;5.55;;;;;;;;;;4992215;28;20046;-62
2022/06/21 08:41:55;;;;;;;10.45;5.20;;;;;;;;;;4991681;28;20058;-62
2022/06/21 08:44:40;;;;;;;11.98;5.25;;;;;;;;;;4992327;28;20031;-62
2022/06/21 08:47:21;;;;;;;8.23;4.68;;;;;;;;;;4991387;28;20037;-62
2022/06/21 08:49:50;;;;;;;7.47;4.75;;;;;;;;;;4991968;28;20057;-64
2022/06/21 08:52:29;;;;;;;10.02;4.95;;;;;;;;;;4992299;28;20382;-61
2022/06/21 08:55:09;;;;;;;9.45;4.97;;;;;;;;;;4991938;28;20084;-62
2022/06/21 08:57:44;;;;;;;9.68;5.03;;;;;;;;;;4991913;28;20421;-66
2022/06/21 09:00:22;;;;;;;11.52;5.15;;;;;;;;;;4992142;28;20023;-60
2022/06/21 09:02:55;;;;;;;12.52;4.75;;;;;;;;;;4992148;28;20027;-62
2022/06/21 09:05:22;;;;;;;11.30;5.00;;;;;;;;;;4974218;28;20026;-61
2022/06/21 09:08:07;;;;;;;10.30;4.93;;;;;;;;;;4991609;28;20034;-61
2022/06/21 09:10:36;;;;;;;10.80;5.10;;;;;;;;;;4991857;28;20045;-60
2022/06/21 09:13:05;;;;;;;9.25;4.40;;;;;;;;;;4991821;28;20025;-64
2022/06/21 09:15:40;;;;;;;7.93;4.40;;;;;;;;;;4991182;28;20045;-62
2022/06/21 09:18:17;;;;;;;8.73;4.38;;;;;;;;;;4991938;28;20030;-60
2022/06/21 09:20:48;;;;;;;8.50;4.30;;;;;;;;;;4991458;28;20030;-63
2022/06/21 09:23:18;;;;;;;14.02;4.70;;;;;;;;;;4991738;28;20041;-61
2022/06/21 09:26:02;;;;;;;11.18;4.50;;;;;;;;;;4991470;28;20494;-61
2022/06/21 09:28:28;;;;;;;10.27;4.32;;;;;;;;;;4973870;28;20088;-63
2022/06/21 09:30:58;;;;;;;8.65;4.30;;;;;;;;;;4991427;28;20026;-61
2022/06/21 09:33:47;;;;;;;8.45;3.80;;;;;;;;;;4991866;28;20027;-63
2022/06/21 09:36:13;;;;;;;10.65;4.70;;;;;;;;;;4893373;29;20068;-63
2022/06/21 09:38:53;;;;;;;7.00;3.95;;;;;;;;;;4893829;29;20077;-60
2022/06/21 09:41:33;;;;;;;11.43;4.25;;;;;;;;;;4893937;29;20124;-60
2022/06/21 09:44:05;;;;;;;9.50;4.30;;;;;;;;;;4893310;29;20056;-61
2022/06/21 09:46:41;;;;;;;8.88;4.20;;;;;;;;;;4893052;29;20043;-61
2022/06/21 09:49:07;;;;;;;7.38;4.22;;;;;;;;;;4893316;29;20489;-61
2022/06/21 09:51:54;;;;;;;7.72;3.83;;;;;;;;;;4893670;29;20043;-61
2022/06/21 09:54:20;;;;;;;8.40;4.15;;;;;;;;;;4897526;29;20366;-61
2022/06/21 09:57:02;;;;;;;8.40;4.55;;;;;;;;;;4897161;29;20051;-61
2022/06/21 09:59:34;;;;;;;15.60;4.22;;;;;;;;;;4897542;29;20032;-62
2022/06/21 10:02:19;;;;;;;9.77;4.10;;;;;;;;;;4897472;29;20501;-61
2022/06/21 10:04:50;;;;;;;9.80;4.40;;;;;;;;;;4897214;29;20092;-63
2022/06/21 10:07:19;;;;;;;11.02;4.68;;;;;;;;;;4897304;29;20049;-62
2022/06/21 10:09:57;;;;;;;11.75;4.10;;;;;;;;;;4881374;29;20035;-62
2022/06/21 10:12:42;;;;;;;7.15;3.65;;;;;;;;;;4909268;28;20122;-61
2022/06/21 10:15:28;;;;;;;8.65;4.20;;;;;;;;;;4983807;28;20030;-61
2022/06/21 10:18:12;;;;;;;10.50;3.92;;;;;;;;;;4993650;28;20042;-61
2022/06/21 10:20:42;;;;;;;7.13;4.07;;;;;;;;;;4977469;28;20030;-60
2022/06/21 10:23:29;;;;;;;10.63;3.83;;;;;;;;;;4994948;28;20026;-60
2022/06/21 10:25:55;;;;;;;8.40;4.05;;;;;;;;;;4994730;28;20026;-61
2022/06/21 10:28:24;;;;;;;9.13;4.20;;;;;;;;;;4994752;28;20030;-60
2022/06/21 10:31:14;;;;;;;6.53;4.00;;;;;;;;;;4994712;28;20030;-60
2022/06/21 10:34:00;;;;;;;7.45;3.53;;;;;;;;;;4994259;28;20030;-60
2022/06/21 10:36:49;;;;;;;8.98;4.10;;;;;;;;;;4976962;28;20046;-61
2022/06/21 10:39:30;;;;;;;7.18;4.45;;;;;;;;;;4977145;28;20402;-60
2022/06/21 10:44:59;;;;;;;7.78;4.00;;;;;;;;;;4991891;28;20062;-60
2022/06/21 10:47:40;;;;;;;7.38;4.20;;;;;;;;;;4994731;28;20069;-61
2022/06/21 10:50:18;;;;;;;8.73;3.50;;;;;;;;;;4994204;28;20014;-61
2022/06/21 10:52:56;;;;;;;10.38;3.58;;;;;;;;;;4994011;28;20062;-61
2022/06/21 10:55:31;;;;;;;6.75;4.10;;;;;;;;;;4993571;28;20034;-60
2022/06/21 10:58:03;;;;;;;12.02;3.80;;;;;;;;;;4992849;28;20045;-61
2022/06/21 11:03:34;;;;;;;7.10;4.25;;;;;;;;;;4993302;28;20493;-62
2022/06/21 11:06:03;;;;;;;7.65;4.07;;;;;;;;;;4993225;28;20026;-61
2022/06/21 11:08:35;;;;;;;9.48;3.90;;;;;;;;;;4975961;28;20032;-61
2022/06/21 11:11:19;;;;;;;10.40;4.00;;;;;;;;;;4993363;28;20030;-59
2022/06/21 11:14:21;;;;;;;10.75;3.80;;;;;;;;;;4993488;28;20027;-61
2022/06/21 11:16:56;;;;;;;6.45;3.50;;;;;;;;;;4913722;29;20056;-60
2022/06/21 11:19:40;;;;;;;7.70;3.58;;;;;;;;;;4914104;29;20053;-61
2022/06/21 11:22:25;;;;;;;7.32;4.07;;;;;;;;;;4913781;29;20123;-61
2022/06/21 11:24:51;;;;;;;10.50;3.50;;;;;;;;;;4913112;29;20040;-62
2022/06/21 11:27:27;;;;;;;6.95;3.47;;;;;;;;;;4914021;29;20072;-62
2022/06/21 11:30:12;;;;;;;13.23;3.88;;;;;;;;;;4914249;29;20036;-61
2022/06/21 11:32:42;;;;;;;9.18;3.67;;;;;;;;;;4914158;29;20451;-62
2022/06/21 11:35:09;;;;;;;9.05;4.47;;;;;;;;;;4914050;29;20092;-61
2022/06/21 11:37:58;;;;;;;8.43;3.70;;;;;;;;;;4914276;28;20420;-61
2022/06/21 11:40:30;;;;;;;5.45;3.38;;;;;;;;;;4871526;29;20045;-62
2022/06/21 11:42:57;;;;;;;6.35;3.80;;;;;;;;;;4876454;29;20044;-61
2022/06/21 11:45:46;;;;;;;5.38;3.58;;;;;;;;;;4876433;29;20108;-61
2022/06/21 11:48:24;;;;;;;12.90;3.90;;;;;;;;;;4876677;29;20113;-62
2022/06/21 11:50:50;;;;;;;9.43;3.70;;;;;;;;;;4906509;29;20103;-62
2022/06/21 11:53:37;;;;;;;7.60;3.80;;;;;;;;;;4932914;29;20028;-62
2022/06/21 11:56:11;;;;;;;8.88;3.60;;;;;;;;;;4932692;29;20044;-61
2022/06/21 11:58:56;;;;;;;8.02;3.80;;;;;;;;;;4932731;29;20043;-61
2022/06/21 12:01:32;;;;;;;7.93;4.00;;;;;;;;;;4931760;29;20035;-61
2022/06/21 12:03:58;;;;;;;9.60;4.00;;;;;;;;;;4932204;29;20551;-61
2022/06/21 12:06:29;;;;;;;11.02;4.13;;;;;;;;;;4932548;29;20072;-62
2022/06/21 12:09:02;;;;;;;6.65;3.88;;;;;;;;;;4932228;29;20244;-61
2022/06/21 12:11:28;;;;;;;6.72;3.65;;;;;;;;;;4932520;29;20042;-61
2022/06/21 12:14:06;;;;;;;11.60;3.72;;;;;;;;;;4920826;29;20032;-61
2022/06/21 12:16:51;;;;;;;8.27;3.85;;;;;;;;;;4920588;28;20058;-61
2022/06/21 12:19:20;;;;;;;8.63;3.83;;;;;;;;;;4973688;28;20034;-61
2022/06/21 12:22:03;;;;;;;6.80;3.90;;;;;;;;;;4973134;28;20467;-61
2022/06/21 12:24:30;;;;;;;10.50;4.13;;;;;;;;;;4973193;28;20022;-62
2022/06/21 12:26:56;;;;;;;10.65;4.03;;;;;;;;;;4973231;28;20518;-63
2022/06/21 12:29:23;;;;;;;7.13;4.13;;;;;;;;;;4973007;28;20038;-61
2022/06/21 12:31:53;;;;;;;8.65;4.22;;;;;;;;;;4972651;28;20035;-61
2022/06/21 12:34:25;;;;;;;8.52;4.15;;;;;;;;;;4973081;28;20065;-61
2022/06/21 12:36:51;;;;;;;;;;;;;;;;;;4972836;28;20062;-61
2022/06/21 12:39:24;;;;;;;8.20;3.53;;;;;;;;;;4973029;28;20365;-62
2022/06/21 12:41:56;;;;;;;8.32;3.42;;;;;;;;;;4972864;28;20486;-61
2022/06/21 12:44:23;;;;;;;;;;;;;;;;;;4973177;28;20478;-61
2022/06/21 12:46:56;;;;;;;13.20;4.10;;;;;;;;;;4973235;28;19928;-61
2022/06/21 12:49:28;;;;;;;7.25;3.70;;;;;;;;;;4973099;28;20556;-62
2022/06/21 12:51:56;;;;;;;9.32;4.18;;;;;;;;;;4972813;28;20077;-60
2022/06/21 12:54:37;;;;;;;9.50;4.00;;;;;;;;;;4972791;28;20027;-62
2022/06/21 12:57:22;;;;;;;8.88;3.63;;;;;;;;;;4972654;28;20093;-61
2022/06/21 13:00:02;;;;;;;10.32;4.18;;;;;;;;;;4972669;28;20105;-60
2022/06/21 13:02:35;;;;;;;8.52;4.22;;;;;;;;;;4972703;28;20058;-61
2022/06/21 13:05:01;;;;;;;10.23;3.72;;;;;;;;;;4972730;28;20090;-61
2022/06/21 13:07:38;;;;;;;9.70;4.38;;;;;;;;;;4972441;28;20027;-61
2022/06/21 13:10:16;;;;;;;8.40;4.30;;;;;;;;;;4972418;28;20034;-60
2022/06/21 13:13:01;;;;;;;8.77;3.65;;;;;;;;;;4972028;28;20570;-62
2022/06/21 13:15:36;;;;;;;12.75;4.50;;;;;;;;;;4954531;28;20053;-62
2022/06/21 13:18:10;;;;;;;9.20;4.28;;;;;;;;;;4972511;28;20259;-63
2022/06/21 13:20:54;;;;;;;8.55;4.20;;;;;;;;;;4972320;28;20073;-61
2022/06/21 13:23:20;;;;;;;8.57;4.40;;;;;;;;;;4972131;28;20038;-62
2022/06/21 13:26:00;;;;;;;10.00;4.22;;;;;;;;;;4971769;28;20026;-62
2022/06/21 13:28:29;;;;;;;10.30;4.25;;;;;;;;;;4972155;28;20030;-64
2022/06/21 13:31:01;;;;;;;8.32;4.28;;;;;;;;;;4972446;28;20101;-63
2022/06/21 13:33:33;;;;;;;6.68;4.57;;;;;;;;;;4972566;28;20135;-62
2022/06/21 13:35:59;;;;;;;;;;;;;;;;;;4972700;28;20475;-62
2022/06/21 13:38:32;;;;;;;12.10;4.50;;;;;;;;;;4972063;28;19910;-61
2022/06/21 13:41:07;;;;;;;11.57;4.38;;;;;;;;;;4972368;28;20042;-61
2022/06/21 13:43:33;;;;;;;7.47;3.90;;;;;;;;;;4972111;28;20030;-61
2022/06/21 13:46:02;;;;;;;9.65;4.20;;;;;;;;;;4971879;28;20440;-61
2022/06/21 13:48:31;;;;;;;7.15;4.50;;;;;;;;;;4971937;28;20062;-61
2022/06/21 13:51:06;;;;;;;10.13;4.88;;;;;;;;;;4971873;28;20098;-61
2022/06/21 13:53:51;;;;;;;8.52;4.55;;;;;;;;;;4971782;28;20117;-61
2022/06/21 13:56:32;;;;;;;10.20;4.72;;;;;;;;;;4971832;28;20466;-61
2022/06/21 13:59:01;;;;;;;6.85;4.40;;;;;;;;;;4971799;28;20031;-63
2022/06/21 14:01:28;;;;;;;10.50;4.35;;;;;;;;;;4954402;28;20089;-61
2022/06/21 14:03:54;;;;;;;9.15;4.00;;;;;;;;;;4971764;28;20062;-62
2022/06/21 14:06:26;;;;;;;7.63;4.20;;;;;;;;;;4971622;28;20035;-61
2022/06/21 14:08:52;;;;;;;;;;;;;;;;;;4972161;28;20039;-61
2022/06/21 14:11:26;;;;;;;12.75;4.50;;;;;;;;;;4973722;28;19993;-64
2022/06/21 14:13:55;;;;;;;8.20;4.85;;;;;;;;;;4991078;28;20371;-65
2022/06/21 14:16:39;;;;;;;11.18;4.18;;;;;;;;;;4990366;28;20129;-65
2022/06/21 14:19:15;;;;;;;7.63;4.35;;;;;;;;;;4990600;28;20031;-65
2022/06/21 14:21:49;;;;;;;11.15;4.50;;;;;;;;;;4990790;28;20114;-66
2022/06/21 14:24:15;;;;;;;14.40;4.63;;;;;;;;;;4991059;28;20130;-65
2022/06/21 14:26:44;;;;;;;7.57;4.28;;;;;;;;;;4989873;28;20486;-65
2022/06/21 14:29:13;;;;;;;8.82;4.60;;;;;;;;;;4990482;28;20529;-66
2022/06/21 14:31:42;;;;;;;9.80;4.68;;;;;;;;;;4990326;28;20026;-66
2022/06/21 14:34:12;;;;;;;12.45;4.70;;;;;;;;;;4990518;28;20105;-66
2022/06/21 14:36:46;;;;;;;9.13;4.43;;;;;;;;;;4989534;28;20317;-66
2022/06/21 14:39:18;;;;;;;13.20;4.82;;;;;;;;;;4991405;28;20117;-65
2022/06/21 14:41:44;;;;;;;12.85;4.60;;;;;;;;;;4993940;28;20101;-66
2022/06/21 14:44:23;;;;;;;12.48;4.90;;;;;;;;;;4994480;28;20030;-68
2022/06/21 14:46:56;;;;;;;11.65;4.80;;;;;;;;;;4994115;28;20037;-72
2022/06/21 14:49:22;;;;;;;7.93;4.30;;;;;;;;;;4994273;28;20489;-67
2022/06/21 14:51:57;;;;;;;10.55;4.85;;;;;;;;;;4994376;28;20027;-68
2022/06/21 14:54:41;;;;;;;13.18;4.80;;;;;;;;;;4994178;28;20041;-62
2022/06/21 14:57:07;;;;;;;10.45;4.72;;;;;;;;;;4993607;28;20042;-62
2022/06/21 14:59:33;;;;;;;9.43;4.78;;;;;;;;;;4994289;28;20023;-67
2022/06/21 15:02:02;;;;;;;9.60;4.28;;;;;;;;;;4994145;28;20027;-62
2022/06/21 15:04:28;;;;;;;9.40;4.20;;;;;;;;;;4993684;28;20026;-63
2022/06/21 15:07:09;;;;;;;8.43;4.40;;;;;;;;;;4993821;28;20019;-66
2022/06/21 15:09:43;;;;;;;15.07;4.70;;;;;;;;;;4994059;28;20030;-62
2022/06/21 15:12:12;;;;;;;8.52;4.10;;;;;;;;;;4994100;28;20343;-61
2022/06/21 15:14:38;;;;;;;9.57;4.38;;;;;;;;;;4993754;28;20037;-69
2022/06/21 15:17:14;;;;;;;10.15;4.45;;;;;;;;;;4993525;28;20058;-68
2022/06/21 15:19:55;;;;;;;10.82;4.30;;;;;;;;;;4993748;28;20035;-62
2022/06/21 15:22:40;;;;;;;10.70;4.80;;;;;;;;;;4993538;28;20113;-67
2022/06/21 15:25:11;;;;;;;10.93;4.60;;;;;;;;;;4993198;28;20037;-67
2022/06/21 15:27:40;;;;;;;9.43;4.53;;;;;;;;;;4993404;28;20026;-66
2022/06/21 15:30:07;;;;;;;12.13;4.82;;;;;;;;;;4993128;28;20076;-66
2022/06/21 15:32:38;;;;;;;10.32;4.70;;;;;;;;;;5005204;28;20030;-65
2022/06/21 15:35:05;;;;;;;8.65;4.00;;;;;;;;;;5012790;28;20034;-68
2022/06/21 15:37:41;;;;;;;8.13;3.75;;;;;;;;;;5012765;28;20033;-65
2022/06/21 15:40:16;;;;;;;7.32;3.83;;;;;;;;;;5012598;28;20565;-66
2022/06/21 15:42:49;;;;;;;11.57;4.40;;;;;;;;;;5012863;28;20064;-61
2022/06/21 15:45:22;;;;;;;9.18;3.70;;;;;;;;;;5012362;28;20433;-60
2022/06/21 15:50:49;;;;;;;8.55;3.50;;;;;;;;;;4997722;28;20077;-60
2022/06/21 15:53:22;;;;;;;9.10;3.83;;;;;;;;;;4992720;28;20364;-61
2022/06/21 15:55:57;;;;;;;11.73;4.00;;;;;;;;;;4992765;28;20037;-60
2022/06/21 15:58:29;;;;;;;12.07;3.95;;;;;;;;;;4992278;28;20042;-60
2022/06/21 16:00:55;;;;;;;;;;;;;;;;;;4993713;28;20026;-60
2022/06/21 16:03:22;;;;;;;10.27;3.38;;;;;;;;;;4992085;28;19924;-61
2022/06/21 16:05:56;;;;;;;7.30;3.15;;;;;;;;;;4992808;28;20026;-62
2022/06/21 16:08:26;;;;;;;8.20;2.88;;;;;;;;;;4992132;28;20034;-60
2022/06/21 16:10:53;;;;;;;16.85;3.13;;;;;;;;;;4992841;28;20018;-62
2022/06/21 16:13:22;;;;;;;15.90;3.47;;;;;;;;;;4992459;28;20061;-58
2022/06/21 16:15:49;;;;;;;15.65;3.47;;;;;;;;;;4992076;28;20058;-60
2022/06/21 16:18:19;;;;;;;14.63;2.83;;;;;;;;;;4992166;28;20069;-63
2022/06/21 16:20:46;;;;;;;16.13;3.25;;;;;;;;;;4991051;28;20019;-63
2022/06/21 16:23:15;;;;;;;14.13;3.05;;;;;;;;;;4992632;28;20058;-58
2022/06/21 16:25:51;;;;;;;13.07;2.90;;;;;;;;;;4992573;28;20429;-58
2022/06/21 16:28:36;;;;;;;9.77;2.67;;;;;;;;;;4992193;28;20789;-58
2022/06/21 16:33:55;;;;;;;11.80;2.42;;;;;;;;;;4992306;28;20049;-62
2022/06/21 16:36:30;;;;;;;10.82;2.95;;;;;;;;;;4992421;28;20132;-57
2022/06/21 16:38:58;;;;;;;12.10;2.90;;;;;;;;;;4992036;28;20026;-58
2022/06/21 16:44:12;;;;;;;14.43;3.20;;;;;;;;;;4992573;28;20038;-62
2022/06/21 16:47:04;;;;;;;8.57;2.40;;;;;;;;;;4991978;28;20501;-58
2022/06/21 16:49:31;;;;;;;;;;;;;;;;;;4955651;28;20143;-63
2022/06/21 16:51:58;;;;;;;8.65;2.90;;;;;;;;;;4991955;28;19931;-64
2022/06/21 16:54:32;;;;;;;11.45;2.90;;;;;;;;;;4973977;28;20120;-62
2022/06/21 16:56:59;;;;;;;10.57;3.15;;;;;;;;;;4991658;28;20041;-63
2022/06/21 16:59:27;;;;;;;8.40;2.75;;;;;;;;;;4992012;28;20023;-58
2022/06/21 17:01:58;;;;;;;17.42;3.72;;;;;;;;;;4991676;28;20041;-61
2022/06/21 17:04:29;;;;;;;10.57;2.95;;;;;;;;;;4991882;28;20022;-58
2022/06/21 17:06:58;;;;;;;10.35;2.80;;;;;;;;;;4991276;28;20073;-59
2022/06/21 17:09:28;;;;;;;15.65;3.38;;;;;;;;;;4972417;28;20112;-58
2022/06/21 17:11:56;;;;;;;8.48;2.90;;;;;;;;;;4972166;28;20031;-62
2022/06/21 17:14:23;;;;;;;10.70;2.78;;;;;;;;;;4972558;28;20023;-58
2022/06/21 17:16:54;;;;;;;9.40;2.50;;;;;;;;;;4971716;28;20070;-61
2022/06/21 17:19:26;;;;;;;9.43;2.83;;;;;;;;;;4972290;28;20136;-63
2022/06/21 17:21:52;;;;;;;;;;;;;;;;;;4977316;28;20041;-58
2022/06/21 17:24:36;;;;;;;9.85;2.83;;;;;;;;;;4991156;28;19906;-62
2022/06/21 17:27:21;;;;;;;7.63;2.75;;;;;;;;;;4991635;28;20034;-63
2022/06/21 17:30:00;;;;;;;12.48;3.13;;;;;;;;;;4991648;28;20038;-64
2022/06/21 17:32:31;;;;;;;8.75;3.10;;;;;;;;;;4991788;28;20023;-61
2022/06/21 17:35:09;;;;;;;14.10;3.20;;;;;;;;;;4991827;28;20022;-65
2022/06/21 17:38:02;;;;;;;9.25;3.25;;;;;;;;;;4991596;28;20046;-65
2022/06/21 17:40:28;;;;;;;;;;;;;;;;;;4987805;28;20105;-59
2022/06/21 17:43:06;;;;;;;9.60;2.50;;;;;;;;;;4991678;28;19909;-60
2022/06/21 17:45:46;;;;;;;7.93;2.92;;;;;;;;;;4991304;28;20038;-61
2022/06/21 17:48:17;;;;;;;10.27;3.30;;;;;;;;;;4991472;28;20109;-61
2022/06/21 17:50:57;;;;;;;16.48;3.28;;;;;;;;;;4990040;28;20085;-59
2022/06/21 17:53:26;;;;;;;8.85;3.08;;;;;;;;;;4991051;28;20258;-59
2022/06/21 17:55:58;;;;;;;11.93;3.35;;;;;;;;;;4991224;28;20465;-62
2022/06/21 17:58:24;;;;;;;;;;;;;;;;;;4991334;28;20103;-61
2022/06/21 18:00:55;;;;;;;6.90;2.78;;;;;;;;;;4991245;28;20000;-64
2022/06/21 18:03:44;;;;;;;9.45;3.10;;;;;;;;;;4990978;28;20030;-59
2022/06/21 18:06:12;;;;;;;7.65;2.55;;;;;;;;;;4991084;28;20041;-62
2022/06/21 18:08:45;;;;;;;15.90;3.67;;;;;;;;;;4991335;28;20550;-64
2022/06/21 18:11:16;;;;;;;8.05;2.50;;;;;;;;;;4990685;28;20030;-58
2022/06/21 18:13:55;;;;;;;9.55;3.05;;;;;;;;;;4991477;28;20038;-60
2022/06/21 18:16:26;;;;;;;11.73;3.25;;;;;;;;;;4994626;28;20513;-58
2022/06/21 18:18:58;;;;;;;9.10;2.80;;;;;;;;;;4995174;28;20121;-63
2022/06/21 18:21:34;;;;;;;8.50;3.33;;;;;;;;;;4995040;28;20026;-61
2022/06/21 18:24:06;;;;;;;9.27;3.00;;;;;;;;;;4994405;28;20176;-63
2022/06/21 18:26:38;;;;;;;11.07;3.10;;;;;;;;;;4994446;28;20034;-60
2022/06/21 18:29:14;;;;;;;10.52;2.88;;;;;;;;;;4994403;28;20054;-58
2022/06/21 18:31:49;;;;;;;12.23;3.00;;;;;;;;;;4995041;28;20424;-59
2022/06/21 18:34:17;;;;;;;9.88;2.97;;;;;;;;;;4994334;28;20413;-58
2022/06/21 18:36:58;;;;;;;9.23;3.53;;;;;;;;;;4994664;28;20082;-60
2022/06/21 18:39:30;;;;;;;8.38;3.00;;;;;;;;;;4994055;28;20033;-62
2022/06/21 18:42:19;;;;;;;9.23;3.22;;;;;;;;;;4994831;28;20042;-62
2022/06/21 18:44:57;;;;;;;9.32;3.08;;;;;;;;;;4994309;28;20061;-62
2022/06/21 18:47:35;;;;;;;12.32;3.15;;;;;;;;;;4994560;28;20482;-60
2022/06/21 18:50:02;;;;;;;7.75;3.28;;;;;;;;;;4994099;28;20471;-61
2022/06/21 18:52:31;;;;;;;8.35;3.92;;;;;;;;;;4993290;28;20027;-64
2022/06/21 18:54:57;;;;;;;8.38;3.08;;;;;;;;;;4994322;28;20034;-59
2022/06/21 18:57:33;;;;;;;6.90;3.40;;;;;;;;;;4994021;28;20056;-61